sensor_id;sensor_type;location;lat;lon;timestamp;temperature;humidity
78733;DHT22;68056;52.530;5.454;2024-02-21T00:01:53;9.20;76.80
78733;DHT22;68056;52.530;5.454;2024-02-21T00:04:19;9.20;76.80
78733;DHT22;68056;52.530;5.454;2024-02-21T00:06:45;9.20;76.80
78733;DHT22;68056;52.530;5.454;2024-02-21T00:09:10;9.20;76.80
78733;DHT22;68056;52.530;5.454;2024-02-21T00:11:37;9.20;76.80
78733;DHT22;68056;52.530;5.454;2024-02-21T00:14:03;9.20;76.80
78733;DHT22;68056;52.530;5.454;2024-02-21T00:16:28;9.20;76.90
78733;DHT22;68056;52.530;5.454;2024-02-21T00:18:55;9.20;76.90
78733;DHT22;68056;52.530;5.454;2024-02-21T00:21:21;9.20;76.90
78733;DHT22;68056;52.530;5.454;2024-02-21T00:23:47;9.20;77.00
78733;DHT22;68056;52.530;5.454;2024-02-21T00:26:14;9.20;77.00
78733;DHT22;68056;52.530;5.454;2024-02-21T00:28:39;9.20;77.00
78733;DHT22;68056;52.530;5.454;2024-02-21T00:31:05;9.20;77.00
78733;DHT22;68056;52.530;5.454;2024-02-21T00:33:30;9.20;77.10
78733;DHT22;68056;52.530;5.454;2024-02-21T00:35:56;9.20;77.10
78733;DHT22;68056;52.530;5.454;2024-02-21T00:38:22;9.20;77.20
78733;DHT22;68056;52.530;5.454;2024-02-21T00:40:47;9.20;77.20
78733;DHT22;68056;52.530;5.454;2024-02-21T00:43:13;9.20;77.20
78733;DHT22;68056;52.530;5.454;2024-02-21T00:45:38;9.20;77.30
78733;DHT22;68056;52.530;5.454;2024-02-21T00:48:04;9.20;77.30
78733;DHT22;68056;52.530;5.454;2024-02-21T00:50:30;9.20;77.30
78733;DHT22;68056;52.530;5.454;2024-02-21T00:52:56;9.20;77.30
78733;DHT22;68056;52.530;5.454;2024-02-21T00:55:21;9.20;77.30
78733;DHT22;68056;52.530;5.454;2024-02-21T00:57:47;9.20;77.20
78733;DHT22;68056;52.530;5.454;2024-02-21T01:00:13;9.20;77.30
78733;DHT22;68056;52.530;5.454;2024-02-21T01:02:38;9.20;77.30
78733;DHT22;68056;52.530;5.454;2024-02-21T01:05:04;9.20;77.30
78733;DHT22;68056;52.530;5.454;2024-02-21T01:07:30;9.30;77.20
78733;DHT22;68056;52.530;5.454;2024-02-21T01:09:56;9.30;77.30
78733;DHT22;68056;52.530;5.454;2024-02-21T01:12:21;9.30;77.30
78733;DHT22;68056;52.530;5.454;2024-02-21T01:14:48;9.30;77.30
78733;DHT22;68056;52.530;5.454;2024-02-21T01:17:16;9.30;77.30
78733;DHT22;68056;52.530;5.454;2024-02-21T01:19:45;9.30;77.30
78733;DHT22;68056;52.530;5.454;2024-02-21T01:22:11;9.30;77.30
78733;DHT22;68056;52.530;5.454;2024-02-21T01:24:37;9.30;77.30
78733;DHT22;68056;52.530;5.454;2024-02-21T01:27:02;9.30;77.30
78733;DHT22;68056;52.530;5.454;2024-02-21T01:29:28;9.30;77.30
78733;DHT22;68056;52.530;5.454;2024-02-21T01:31:54;9.40;77.30
78733;DHT22;68056;52.530;5.454;2024-02-21T01:34:20;9.40;77.20
78733;DHT22;68056;52.530;5.454;2024-02-21T01:36:46;9.40;77.30
78733;DHT22;68056;52.530;5.454;2024-02-21T01:39:11;9.40;77.30
78733;DHT22;68056;52.530;5.454;2024-02-21T01:41:37;9.40;77.20
78733;DHT22;68056;52.530;5.454;2024-02-21T01:44:03;9.40;77.30
78733;DHT22;68056;52.530;5.454;2024-02-21T01:46:28;9.40;77.30
78733;DHT22;68056;52.530;5.454;2024-02-21T01:48:56;9.40;77.20
78733;DHT22;68056;52.530;5.454;2024-02-21T01:51:22;9.40;77.30
78733;DHT22;68056;52.530;5.454;2024-02-21T01:53:50;9.40;77.20
78733;DHT22;68056;52.530;5.454;2024-02-21T01:56:16;9.40;77.20
78733;DHT22;68056;52.530;5.454;2024-02-21T01:58:42;9.40;77.30
78733;DHT22;68056;52.530;5.454;2024-02-21T02:01:10;9.40;77.20
78733;DHT22;68056;52.530;5.454;2024-02-21T02:03:35;9.40;77.20
78733;DHT22;68056;52.530;5.454;2024-02-21T02:06:02;9.40;77.20
78733;DHT22;68056;52.530;5.454;2024-02-21T02:08:28;9.40;77.20
78733;DHT22;68056;52.530;5.454;2024-02-21T02:10:53;9.40;77.20
78733;DHT22;68056;52.530;5.454;2024-02-21T02:13:19;9.40;77.20
78733;DHT22;68056;52.530;5.454;2024-02-21T02:15:46;9.40;77.20
78733;DHT22;68056;52.530;5.454;2024-02-21T02:18:14;9.40;77.20
78733;DHT22;68056;52.530;5.454;2024-02-21T02:20:40;9.40;77.20
78733;DHT22;68056;52.530;5.454;2024-02-21T02:23:19;9.40;77.20
78733;DHT22;68056;52.530;5.454;2024-02-21T02:25:45;9.40;77.20
78733;DHT22;68056;52.530;5.454;2024-02-21T02:28:14;9.30;77.20
78733;DHT22;68056;52.530;5.454;2024-02-21T02:30:46;9.30;77.20
78733;DHT22;68056;52.530;5.454;2024-02-21T02:33:11;9.30;77.20
78733;DHT22;68056;52.530;5.454;2024-02-21T02:35:37;9.30;77.20
78733;DHT22;68056;52.530;5.454;2024-02-21T02:38:05;9.20;77.30
78733;DHT22;68056;52.530;5.454;2024-02-21T02:40:32;9.30;77.20
78733;DHT22;68056;52.530;5.454;2024-02-21T02:42:58;9.30;77.30
78733;DHT22;68056;52.530;5.454;2024-02-21T02:45:25;9.20;77.30
78733;DHT22;68056;52.530;5.454;2024-02-21T02:47:55;9.20;77.30
78733;DHT22;68056;52.530;5.454;2024-02-21T02:50:23;9.20;77.40
78733;DHT22;68056;52.530;5.454;2024-02-21T02:52:48;9.20;77.40
78733;DHT22;68056;52.530;5.454;2024-02-21T02:55:14;9.20;77.50
78733;DHT22;68056;52.530;5.454;2024-02-21T02:57:41;9.20;77.50
78733;DHT22;68056;52.530;5.454;2024-02-21T03:00:08;9.20;77.60
78733;DHT22;68056;52.530;5.454;2024-02-21T03:02:35;9.20;77.60
78733;DHT22;68056;52.530;5.454;2024-02-21T03:05:00;9.20;77.70
78733;DHT22;68056;52.530;5.454;2024-02-21T03:07:26;9.20;77.80
78733;DHT22;68056;52.530;5.454;2024-02-21T03:09:52;9.20;77.80
78733;DHT22;68056;52.530;5.454;2024-02-21T03:12:18;9.20;77.80
78733;DHT22;68056;52.530;5.454;2024-02-21T03:14:50;9.10;77.90
78733;DHT22;68056;52.530;5.454;2024-02-21T03:17:16;9.10;78.00
78733;DHT22;68056;52.530;5.454;2024-02-21T03:19:41;9.10;78.00
78733;DHT22;68056;52.530;5.454;2024-02-21T03:22:07;9.00;78.00
78733;DHT22;68056;52.530;5.454;2024-02-21T03:24:33;9.00;78.10
78733;DHT22;68056;52.530;5.454;2024-02-21T03:26:59;9.00;78.10
78733;DHT22;68056;52.530;5.454;2024-02-21T03:29:25;9.00;78.10
78733;DHT22;68056;52.530;5.454;2024-02-21T03:31:51;9.00;78.10
78733;DHT22;68056;52.530;5.454;2024-02-21T03:34:16;9.00;78.10
78733;DHT22;68056;52.530;5.454;2024-02-21T03:36:42;9.10;78.10
78733;DHT22;68056;52.530;5.454;2024-02-21T03:39:07;9.10;78.10
78733;DHT22;68056;52.530;5.454;2024-02-21T03:41:34;9.10;78.20
78733;DHT22;68056;52.530;5.454;2024-02-21T03:44:00;9.10;78.20
78733;DHT22;68056;52.530;5.454;2024-02-21T03:46:26;9.10;78.10
78733;DHT22;68056;52.530;5.454;2024-02-21T03:48:52;9.10;78.20
78733;DHT22;68056;52.530;5.454;2024-02-21T03:51:18;9.20;78.10
78733;DHT22;68056;52.530;5.454;2024-02-21T03:53:43;9.20;78.10
78733;DHT22;68056;52.530;5.454;2024-02-21T03:56:09;9.20;78.10
78733;DHT22;68056;52.530;5.454;2024-02-21T03:58:35;9.20;78.10
78733;DHT22;68056;52.530;5.454;2024-02-21T04:01:01;9.20;78.10
78733;DHT22;68056;52.530;5.454;2024-02-21T04:03:27;9.20;78.10
78733;DHT22;68056;52.530;5.454;2024-02-21T04:05:53;9.20;78.10
78733;DHT22;68056;52.530;5.454;2024-02-21T04:08:19;9.20;78.00
78733;DHT22;68056;52.530;5.454;2024-02-21T04:10:44;9.20;78.10
78733;DHT22;68056;52.530;5.454;2024-02-21T04:13:10;9.20;78.00
78733;DHT22;68056;52.530;5.454;2024-02-21T04:15:35;9.20;78.00
78733;DHT22;68056;52.530;5.454;2024-02-21T04:18:01;9.20;78.00
78733;DHT22;68056;52.530;5.454;2024-02-21T04:20:28;9.30;78.00
78733;DHT22;68056;52.530;5.454;2024-02-21T04:22:54;9.20;78.00
78733;DHT22;68056;52.530;5.454;2024-02-21T04:25:20;9.30;77.90
78733;DHT22;68056;52.530;5.454;2024-02-21T04:27:46;9.30;77.90
78733;DHT22;68056;52.530;5.454;2024-02-21T04:30:12;9.30;78.00
78733;DHT22;68056;52.530;5.454;2024-02-21T04:32:38;9.30;77.90
78733;DHT22;68056;52.530;5.454;2024-02-21T04:35:04;9.30;78.00
78733;DHT22;68056;52.530;5.454;2024-02-21T04:37:29;9.30;77.90
78733;DHT22;68056;52.530;5.454;2024-02-21T04:39:56;9.40;78.00
78733;DHT22;68056;52.530;5.454;2024-02-21T04:42:21;9.40;77.90
78733;DHT22;68056;52.530;5.454;2024-02-21T04:44:47;9.40;77.90
78733;DHT22;68056;52.530;5.454;2024-02-21T04:47:16;9.40;77.90
78733;DHT22;68056;52.530;5.454;2024-02-21T04:49:42;9.40;77.90
78733;DHT22;68056;52.530;5.454;2024-02-21T04:52:09;9.40;77.80
78733;DHT22;68056;52.530;5.454;2024-02-21T04:54:35;9.40;77.80
78733;DHT22;68056;52.530;5.454;2024-02-21T04:57:01;9.40;77.80
78733;DHT22;68056;52.530;5.454;2024-02-21T04:59:26;9.40;77.80
78733;DHT22;68056;52.530;5.454;2024-02-21T05:01:53;9.40;77.70
78733;DHT22;68056;52.530;5.454;2024-02-21T05:04:19;9.40;77.80
78733;DHT22;68056;52.530;5.454;2024-02-21T05:06:45;9.40;77.80
78733;DHT22;68056;52.530;5.454;2024-02-21T05:09:10;9.40;77.80
78733;DHT22;68056;52.530;5.454;2024-02-21T05:11:36;9.40;77.80
78733;DHT22;68056;52.530;5.454;2024-02-21T05:14:03;9.40;77.80
78733;DHT22;68056;52.530;5.454;2024-02-21T05:16:29;9.40;77.80
78733;DHT22;68056;52.530;5.454;2024-02-21T05:18:55;9.40;77.70
78733;DHT22;68056;52.530;5.454;2024-02-21T05:21:22;9.40;77.70
78733;DHT22;68056;52.530;5.454;2024-02-21T05:23:49;9.40;77.70
78733;DHT22;68056;52.530;5.454;2024-02-21T05:26:24;9.40;77.70
78733;DHT22;68056;52.530;5.454;2024-02-21T05:28:50;9.40;77.80
78733;DHT22;68056;52.530;5.454;2024-02-21T05:31:17;9.40;77.70
78733;DHT22;68056;52.530;5.454;2024-02-21T05:33:44;9.40;77.70
78733;DHT22;68056;52.530;5.454;2024-02-21T05:36:10;9.40;77.80
78733;DHT22;68056;52.530;5.454;2024-02-21T05:38:35;9.40;77.70
78733;DHT22;68056;52.530;5.454;2024-02-21T05:41:01;9.40;77.70
78733;DHT22;68056;52.530;5.454;2024-02-21T05:43:27;9.40;77.70
78733;DHT22;68056;52.530;5.454;2024-02-21T05:45:53;9.40;77.70
78733;DHT22;68056;52.530;5.454;2024-02-21T05:48:18;9.40;77.60
78733;DHT22;68056;52.530;5.454;2024-02-21T05:50:45;9.40;77.70
78733;DHT22;68056;52.530;5.454;2024-02-21T05:53:11;9.40;77.70
78733;DHT22;68056;52.530;5.454;2024-02-21T05:55:38;9.40;77.70
78733;DHT22;68056;52.530;5.454;2024-02-21T05:58:05;9.40;77.60
78733;DHT22;68056;52.530;5.454;2024-02-21T06:00:37;9.40;77.60
78733;DHT22;68056;52.530;5.454;2024-02-21T06:03:03;9.40;77.70
78733;DHT22;68056;52.530;5.454;2024-02-21T06:05:28;9.40;77.70
78733;DHT22;68056;52.530;5.454;2024-02-21T06:07:54;9.40;77.70
78733;DHT22;68056;52.530;5.454;2024-02-21T06:10:20;9.40;77.70
78733;DHT22;68056;52.530;5.454;2024-02-21T06:12:45;9.40;77.70
78733;DHT22;68056;52.530;5.454;2024-02-21T06:15:11;9.40;77.70
78733;DHT22;68056;52.530;5.454;2024-02-21T06:17:37;9.40;77.60
78733;DHT22;68056;52.530;5.454;2024-02-21T06:20:02;9.40;77.60
78733;DHT22;68056;52.530;5.454;2024-02-21T06:22:30;9.40;77.60
78733;DHT22;68056;52.530;5.454;2024-02-21T06:24:56;9.40;77.60
78733;DHT22;68056;52.530;5.454;2024-02-21T06:27:21;9.40;77.70
78733;DHT22;68056;52.530;5.454;2024-02-21T06:29:47;9.40;77.60
78733;DHT22;68056;52.530;5.454;2024-02-21T06:32:13;9.40;77.60
78733;DHT22;68056;52.530;5.454;2024-02-21T06:34:38;9.40;77.60
78733;DHT22;68056;52.530;5.454;2024-02-21T06:37:04;9.40;77.60
78733;DHT22;68056;52.530;5.454;2024-02-21T06:39:29;9.40;77.60
78733;DHT22;68056;52.530;5.454;2024-02-21T06:41:55;9.30;77.60
78733;DHT22;68056;52.530;5.454;2024-02-21T06:44:22;9.30;77.60
78733;DHT22;68056;52.530;5.454;2024-02-21T06:46:48;9.30;77.60
78733;DHT22;68056;52.530;5.454;2024-02-21T06:49:13;9.30;77.60
78733;DHT22;68056;52.530;5.454;2024-02-21T06:51:42;9.20;77.50
78733;DHT22;68056;52.530;5.454;2024-02-21T06:54:08;9.20;77.50
78733;DHT22;68056;52.530;5.454;2024-02-21T06:56:35;9.30;77.60
78733;DHT22;68056;52.530;5.454;2024-02-21T06:59:01;9.20;77.50
78733;DHT22;68056;52.530;5.454;2024-02-21T07:01:29;9.20;77.50
78733;DHT22;68056;52.530;5.454;2024-02-21T07:03:54;9.30;77.50
78733;DHT22;68056;52.530;5.454;2024-02-21T07:06:20;9.20;77.50
78733;DHT22;68056;52.530;5.454;2024-02-21T07:08:45;9.20;77.50
78733;DHT22;68056;52.530;5.454;2024-02-21T07:11:11;9.30;77.50
78733;DHT22;68056;52.530;5.454;2024-02-21T07:13:37;9.20;77.50
78733;DHT22;68056;52.530;5.454;2024-02-21T07:16:02;9.20;77.30
78733;DHT22;68056;52.530;5.454;2024-02-21T07:18:28;9.20;77.40
78733;DHT22;68056;52.530;5.454;2024-02-21T07:20:54;9.20;77.40
78733;DHT22;68056;52.530;5.454;2024-02-21T07:23:19;9.30;77.30
78733;DHT22;68056;52.530;5.454;2024-02-21T07:25:45;9.20;77.30
78733;DHT22;68056;52.530;5.454;2024-02-21T07:28:11;9.20;77.20
78733;DHT22;68056;52.530;5.454;2024-02-21T07:30:39;9.30;77.20
78733;DHT22;68056;52.530;5.454;2024-02-21T07:33:04;9.20;77.20
78733;DHT22;68056;52.530;5.454;2024-02-21T07:35:30;9.20;77.20
78733;DHT22;68056;52.530;5.454;2024-02-21T07:37:55;9.30;77.20
78733;DHT22;68056;52.530;5.454;2024-02-21T07:40:21;9.30;77.20
78733;DHT22;68056;52.530;5.454;2024-02-21T07:42:46;9.30;77.10
78733;DHT22;68056;52.530;5.454;2024-02-21T07:45:12;9.40;77.20
78733;DHT22;68056;52.530;5.454;2024-02-21T07:47:38;9.40;77.10
78733;DHT22;68056;52.530;5.454;2024-02-21T07:50:04;9.30;77.10
78733;DHT22;68056;52.530;5.454;2024-02-21T07:52:29;9.30;77.00
78733;DHT22;68056;52.530;5.454;2024-02-21T07:54:55;9.40;77.00
78733;DHT22;68056;52.530;5.454;2024-02-21T07:57:21;9.40;77.10
78733;DHT22;68056;52.530;5.454;2024-02-21T07:59:47;9.40;77.00
78733;DHT22;68056;52.530;5.454;2024-02-21T08:02:14;9.40;77.00
78733;DHT22;68056;52.530;5.454;2024-02-21T08:04:40;9.40;76.90
78733;DHT22;68056;52.530;5.454;2024-02-21T08:07:05;9.40;77.00
78733;DHT22;68056;52.530;5.454;2024-02-21T08:09:31;9.40;76.90
78733;DHT22;68056;52.530;5.454;2024-02-21T08:11:57;9.40;76.90
78733;DHT22;68056;52.530;5.454;2024-02-21T08:14:23;9.50;76.80
78733;DHT22;68056;52.530;5.454;2024-02-21T08:16:59;9.50;76.80
78733;DHT22;68056;52.530;5.454;2024-02-21T08:19:28;9.50;76.80
78733;DHT22;68056;52.530;5.454;2024-02-21T08:21:53;9.50;76.70
78733;DHT22;68056;52.530;5.454;2024-02-21T08:24:19;9.50;76.70
78733;DHT22;68056;52.530;5.454;2024-02-21T08:26:45;9.50;76.60
78733;DHT22;68056;52.530;5.454;2024-02-21T08:29:11;9.50;76.50
78733;DHT22;68056;52.530;5.454;2024-02-21T08:31:37;9.50;76.60
78733;DHT22;68056;52.530;5.454;2024-02-21T08:34:03;9.50;76.50
78733;DHT22;68056;52.530;5.454;2024-02-21T08:36:36;9.50;76.50
78733;DHT22;68056;52.530;5.454;2024-02-21T08:39:02;9.40;76.60
78733;DHT22;68056;52.530;5.454;2024-02-21T08:41:30;9.40;76.60
78733;DHT22;68056;52.530;5.454;2024-02-21T08:43:56;9.40;76.50
78733;DHT22;68056;52.530;5.454;2024-02-21T08:46:23;9.40;76.50
78733;DHT22;68056;52.530;5.454;2024-02-21T08:48:53;9.40;76.60
78733;DHT22;68056;52.530;5.454;2024-02-21T08:51:19;9.40;76.50
78733;DHT22;68056;52.530;5.454;2024-02-21T08:53:48;9.40;76.50
78733;DHT22;68056;52.530;5.454;2024-02-21T08:56:15;9.50;76.50
78733;DHT22;68056;52.530;5.454;2024-02-21T08:58:41;9.50;76.50
78733;DHT22;68056;52.530;5.454;2024-02-21T09:01:07;9.50;76.30
78733;DHT22;68056;52.530;5.454;2024-02-21T09:03:38;9.50;76.40
78733;DHT22;68056;52.530;5.454;2024-02-21T09:06:09;9.50;76.30
78733;DHT22;68056;52.530;5.454;2024-02-21T09:08:35;9.60;76.30
78733;DHT22;68056;52.530;5.454;2024-02-21T09:11:01;9.60;76.30
78733;DHT22;68056;52.530;5.454;2024-02-21T09:13:27;9.60;76.10
78733;DHT22;68056;52.530;5.454;2024-02-21T09:15:52;9.70;76.10
78733;DHT22;68056;52.530;5.454;2024-02-21T09:18:18;9.60;76.00
78733;DHT22;68056;52.530;5.454;2024-02-21T09:20:44;9.60;76.00
78733;DHT22;68056;52.530;5.454;2024-02-21T09:23:10;9.60;75.90
78733;DHT22;68056;52.530;5.454;2024-02-21T09:25:35;9.70;75.90
78733;DHT22;68056;52.530;5.454;2024-02-21T09:28:02;9.70;75.80
78733;DHT22;68056;52.530;5.454;2024-02-21T09:30:28;9.70;75.80
78733;DHT22;68056;52.530;5.454;2024-02-21T09:32:53;9.70;75.80
78733;DHT22;68056;52.530;5.454;2024-02-21T09:35:19;9.80;75.60
78733;DHT22;68056;52.530;5.454;2024-02-21T09:37:49;9.80;75.70
78733;DHT22;68056;52.530;5.454;2024-02-21T09:40:19;9.80;75.60
78733;DHT22;68056;52.530;5.454;2024-02-21T09:42:47;9.90;75.50
78733;DHT22;68056;52.530;5.454;2024-02-21T09:50:23;9.90;75.40
78733;DHT22;68056;52.530;5.454;2024-02-21T09:52:51;9.90;75.30
78733;DHT22;68056;52.530;5.454;2024-02-21T09:55:18;9.90;75.30
78733;DHT22;68056;52.530;5.454;2024-02-21T09:57:44;9.90;75.30
78733;DHT22;68056;52.530;5.454;2024-02-21T10:00:10;9.80;75.30
78733;DHT22;68056;52.530;5.454;2024-02-21T10:02:35;9.80;75.30
78733;DHT22;68056;52.530;5.454;2024-02-21T10:05:02;9.80;75.30
78733;DHT22;68056;52.530;5.454;2024-02-21T10:07:31;9.80;75.40
78733;DHT22;68056;52.530;5.454;2024-02-21T10:10:04;9.90;75.40
78733;DHT22;68056;52.530;5.454;2024-02-21T10:12:29;9.80;75.30
78733;DHT22;68056;52.530;5.454;2024-02-21T10:15:05;9.90;75.40
78733;DHT22;68056;52.530;5.454;2024-02-21T10:17:34;10.00;75.30
78733;DHT22;68056;52.530;5.454;2024-02-21T10:20:11;10.00;75.20
78733;DHT22;68056;52.530;5.454;2024-02-21T10:22:38;10.00;75.10
78733;DHT22;68056;52.530;5.454;2024-02-21T10:25:12;10.00;75.10
78733;DHT22;68056;52.530;5.454;2024-02-21T10:27:38;10.00;75.00
78733;DHT22;68056;52.530;5.454;2024-02-21T10:30:12;10.00;75.00
78733;DHT22;68056;52.530;5.454;2024-02-21T10:32:49;10.00;74.90
78733;DHT22;68056;52.530;5.454;2024-02-21T10:35:14;10.00;74.90
78733;DHT22;68056;52.530;5.454;2024-02-21T10:37:50;10.00;74.80
78733;DHT22;68056;52.530;5.454;2024-02-21T10:40:22;10.00;74.80
78733;DHT22;68056;52.530;5.454;2024-02-21T10:42:48;10.00;74.70
78733;DHT22;68056;52.530;5.454;2024-02-21T10:45:16;10.00;74.70
78733;DHT22;68056;52.530;5.454;2024-02-21T10:47:44;10.00;74.60
78733;DHT22;68056;52.530;5.454;2024-02-21T10:50:15;10.00;74.50
78733;DHT22;68056;52.530;5.454;2024-02-21T10:55:19;10.00;74.30
78733;DHT22;68056;52.530;5.454;2024-02-21T10:57:48;10.00;74.30
78733;DHT22;68056;52.530;5.454;2024-02-21T11:00:17;10.00;74.10
78733;DHT22;68056;52.530;5.454;2024-02-21T11:02:44;10.00;74.10
78733;DHT22;68056;52.530;5.454;2024-02-21T11:05:12;10.00;74.00
78733;DHT22;68056;52.530;5.454;2024-02-21T11:07:38;10.00;74.00
78733;DHT22;68056;52.530;5.454;2024-02-21T11:10:05;10.00;73.80
78733;DHT22;68056;52.530;5.454;2024-02-21T11:12:33;10.00;73.90
78733;DHT22;68056;52.530;5.454;2024-02-21T11:15:09;10.00;73.90
78733;DHT22;68056;52.530;5.454;2024-02-21T11:17:36;10.00;73.90
78733;DHT22;68056;52.530;5.454;2024-02-21T11:20:12;10.00;73.60
78733;DHT22;68056;52.530;5.454;2024-02-21T11:22:42;10.00;73.70
78733;DHT22;68056;52.530;5.454;2024-02-21T11:25:09;10.00;73.70
78733;DHT22;68056;52.530;5.454;2024-02-21T11:27:37;10.10;73.60
78733;DHT22;68056;52.530;5.454;2024-02-21T11:30:12;10.10;73.60
78733;DHT22;68056;52.530;5.454;2024-02-21T11:32:40;10.20;73.40
78733;DHT22;68056;52.530;5.454;2024-02-21T11:35:06;10.20;73.20
78733;DHT22;68056;52.530;5.454;2024-02-21T11:37:33;10.20;73.20
78733;DHT22;68056;52.530;5.454;2024-02-21T11:40:04;10.20;73.20
78733;DHT22;68056;52.530;5.454;2024-02-21T11:42:35;10.10;73.20
78733;DHT22;68056;52.530;5.454;2024-02-21T11:45:01;10.10;73.00
78733;DHT22;68056;52.530;5.454;2024-02-21T11:47:29;10.10;73.10
78733;DHT22;68056;52.530;5.454;2024-02-21T11:49:55;10.20;73.10
78733;DHT22;68056;52.530;5.454;2024-02-21T11:52:27;10.10;73.00
78733;DHT22;68056;52.530;5.454;2024-02-21T11:54:53;10.10;72.90
78733;DHT22;68056;52.530;5.454;2024-02-21T11:57:21;10.10;73.00
78733;DHT22;68056;52.530;5.454;2024-02-21T11:59:47;10.10;73.00
78733;DHT22;68056;52.530;5.454;2024-02-21T12:02:15;10.10;72.90
78733;DHT22;68056;52.530;5.454;2024-02-21T12:04:42;10.10;73.00
78733;DHT22;68056;52.530;5.454;2024-02-21T12:07:08;10.10;73.00
78733;DHT22;68056;52.530;5.454;2024-02-21T12:09:34;10.10;73.00
78733;DHT22;68056;52.530;5.454;2024-02-21T12:12:04;10.10;72.90
78733;DHT22;68056;52.530;5.454;2024-02-21T12:14:32;10.10;72.90
78733;DHT22;68056;52.530;5.454;2024-02-21T12:16:58;10.10;72.90
78733;DHT22;68056;52.530;5.454;2024-02-21T12:19:24;10.10;72.80
78733;DHT22;68056;52.530;5.454;2024-02-21T12:21:50;10.10;72.90
78733;DHT22;68056;52.530;5.454;2024-02-21T12:24:22;10.20;72.90
78733;DHT22;68056;52.530;5.454;2024-02-21T12:26:51;10.30;72.70
78733;DHT22;68056;52.530;5.454;2024-02-21T12:29:20;10.30;72.50
78733;DHT22;68056;52.530;5.454;2024-02-21T12:31:46;10.40;72.40
78733;DHT22;68056;52.530;5.454;2024-02-21T12:34:11;10.40;72.30
78733;DHT22;68056;52.530;5.454;2024-02-21T12:36:44;10.50;72.20
78733;DHT22;68056;52.530;5.454;2024-02-21T12:39:12;10.50;72.20
78733;DHT22;68056;52.530;5.454;2024-02-21T12:41:37;10.50;72.10
78733;DHT22;68056;52.530;5.454;2024-02-21T12:44:06;10.50;72.10
78733;DHT22;68056;52.530;5.454;2024-02-21T12:46:36;10.60;71.90
78733;DHT22;68056;52.530;5.454;2024-02-21T12:49:02;10.60;71.90
78733;DHT22;68056;52.530;5.454;2024-02-21T12:51:29;10.70;71.70
78733;DHT22;68056;52.530;5.454;2024-02-21T12:53:55;10.70;71.60
78733;DHT22;68056;52.530;5.454;2024-02-21T12:56:21;10.70;71.50
78733;DHT22;68056;52.530;5.454;2024-02-21T12:58:46;10.70;71.40
78733;DHT22;68056;52.530;5.454;2024-02-21T13:01:12;10.60;71.30
78733;DHT22;68056;52.530;5.454;2024-02-21T13:03:38;10.60;71.40
78733;DHT22;68056;52.530;5.454;2024-02-21T13:06:05;10.60;71.50
78733;DHT22;68056;52.530;5.454;2024-02-21T13:08:30;10.60;71.60
78733;DHT22;68056;52.530;5.454;2024-02-21T13:10:56;10.60;71.50
78733;DHT22;68056;52.530;5.454;2024-02-21T13:13:21;10.60;71.50
78733;DHT22;68056;52.530;5.454;2024-02-21T13:15:47;10.60;71.60
78733;DHT22;68056;52.530;5.454;2024-02-21T13:18:13;10.60;71.50
78733;DHT22;68056;52.530;5.454;2024-02-21T13:20:38;10.70;71.60
78733;DHT22;68056;52.530;5.454;2024-02-21T13:23:04;10.70;71.50
78733;DHT22;68056;52.530;5.454;2024-02-21T13:25:29;10.60;71.50
78733;DHT22;68056;52.530;5.454;2024-02-21T13:27:55;10.60;71.60
78733;DHT22;68056;52.530;5.454;2024-02-21T13:30:23;10.60;71.50
78733;DHT22;68056;52.530;5.454;2024-02-21T13:32:50;10.60;71.40
78733;DHT22;68056;52.530;5.454;2024-02-21T13:35:16;10.50;71.40
78733;DHT22;68056;52.530;5.454;2024-02-21T13:37:41;10.50;71.50
78733;DHT22;68056;52.530;5.454;2024-02-21T13:40:08;10.50;71.50
78733;DHT22;68056;52.530;5.454;2024-02-21T13:42:37;10.60;71.50
78733;DHT22;68056;52.530;5.454;2024-02-21T13:45:03;10.60;71.50
78733;DHT22;68056;52.530;5.454;2024-02-21T13:47:31;10.50;71.50
78733;DHT22;68056;52.530;5.454;2024-02-21T13:49:56;10.60;71.60
78733;DHT22;68056;52.530;5.454;2024-02-21T13:52:22;10.50;71.60
78733;DHT22;68056;52.530;5.454;2024-02-21T13:54:51;10.50;71.60
78733;DHT22;68056;52.530;5.454;2024-02-21T13:57:17;10.50;71.50
78733;DHT22;68056;52.530;5.454;2024-02-21T13:59:43;10.50;71.50
78733;DHT22;68056;52.530;5.454;2024-02-21T14:02:09;10.40;71.60
78733;DHT22;68056;52.530;5.454;2024-02-21T14:04:35;10.40;71.70
78733;DHT22;68056;52.530;5.454;2024-02-21T14:07:01;10.40;71.70
78733;DHT22;68056;52.530;5.454;2024-02-21T14:09:27;10.40;71.70
78733;DHT22;68056;52.530;5.454;2024-02-21T14:11:55;10.40;71.70
78733;DHT22;68056;52.530;5.454;2024-02-21T14:14:20;10.40;71.70
78733;DHT22;68056;52.530;5.454;2024-02-21T14:16:46;10.40;71.60
78733;DHT22;68056;52.530;5.454;2024-02-21T14:19:13;10.30;71.70
78733;DHT22;68056;52.530;5.454;2024-02-21T14:21:39;10.30;71.80
78733;DHT22;68056;52.530;5.454;2024-02-21T14:24:06;10.30;71.70
78733;DHT22;68056;52.530;5.454;2024-02-21T14:26:32;10.30;71.70
78733;DHT22;68056;52.530;5.454;2024-02-21T14:28:58;10.30;71.80
78733;DHT22;68056;52.530;5.454;2024-02-21T14:31:24;10.30;71.80
78733;DHT22;68056;52.530;5.454;2024-02-21T14:33:50;10.30;71.90
78733;DHT22;68056;52.530;5.454;2024-02-21T14:36:16;10.30;72.00
78733;DHT22;68056;52.530;5.454;2024-02-21T14:38:42;10.40;71.90
78733;DHT22;68056;52.530;5.454;2024-02-21T14:41:08;10.40;71.90
78733;DHT22;68056;52.530;5.454;2024-02-21T14:43:34;10.40;71.80
78733;DHT22;68056;52.530;5.454;2024-02-21T14:46:01;10.30;71.70
78733;DHT22;68056;52.530;5.454;2024-02-21T14:48:29;10.30;71.60
78733;DHT22;68056;52.530;5.454;2024-02-21T14:50:55;10.30;71.70
78733;DHT22;68056;52.530;5.454;2024-02-21T14:53:21;10.30;71.40
78733;DHT22;68056;52.530;5.454;2024-02-21T14:55:48;10.30;71.30
78733;DHT22;68056;52.530;5.454;2024-02-21T14:58:15;10.30;71.30
78733;DHT22;68056;52.530;5.454;2024-02-21T15:00:42;10.30;71.30
78733;DHT22;68056;52.530;5.454;2024-02-21T15:03:16;10.30;71.30
78733;DHT22;68056;52.530;5.454;2024-02-21T15:05:46;10.40;71.40
78733;DHT22;68056;52.530;5.454;2024-02-21T15:08:12;10.30;71.40
78733;DHT22;68056;52.530;5.454;2024-02-21T15:10:42;10.30;71.50
78733;DHT22;68056;52.530;5.454;2024-02-21T15:13:08;10.30;71.60
78733;DHT22;68056;52.530;5.454;2024-02-21T15:15:34;10.30;71.70
78733;DHT22;68056;52.530;5.454;2024-02-21T15:17:59;10.20;71.70
78733;DHT22;68056;52.530;5.454;2024-02-21T15:20:27;10.20;71.80
78733;DHT22;68056;52.530;5.454;2024-02-21T15:22:54;10.10;72.00
78733;DHT22;68056;52.530;5.454;2024-02-21T15:25:20;10.10;72.10
78733;DHT22;68056;52.530;5.454;2024-02-21T15:27:45;10.00;72.30
78733;DHT22;68056;52.530;5.454;2024-02-21T15:30:12;10.00;72.50
78733;DHT22;68056;52.530;5.454;2024-02-21T15:32:40;10.00;72.70
78733;DHT22;68056;52.530;5.454;2024-02-21T15:35:09;9.90;72.90
78733;DHT22;68056;52.530;5.454;2024-02-21T15:37:38;9.80;73.10
78733;DHT22;68056;52.530;5.454;2024-02-21T15:40:04;9.80;73.30
78733;DHT22;68056;52.530;5.454;2024-02-21T15:42:32;9.70;73.40
78733;DHT22;68056;52.530;5.454;2024-02-21T15:44:58;9.70;73.60